createdAt,value
2023-05-05T00:00:21.767Z,12.38
2023-05-05T00:03:25.210Z,12.34
2023-05-05T00:06:28.510Z,12.27
2023-05-05T00:09:30.601Z,12.20
2023-05-05T00:12:32.513Z,12.11
2023-05-05T00:15:36.289Z,12.03
2023-05-05T00:18:38.889Z,11.97
2023-05-05T00:21:41.567Z,11.91
2023-05-05T00:24:43.404Z,11.88
2023-05-05T00:27:45.298Z,11.84
2023-05-05T00:30:47.203Z,11.77
2023-05-05T00:33:49.135Z,11.73
2023-05-05T00:36:51.005Z,11.69
2023-05-05T00:39:52.937Z,11.67
2023-05-05T00:42:54.833Z,11.63
2023-05-05T00:46:02.314Z,11.62
2023-05-05T00:49:04.649Z,11.59
2023-05-05T00:52:07.561Z,11.53
2023-05-05T00:55:10.192Z,11.51
2023-05-05T00:58:13.714Z,11.50
2023-05-05T01:01:15.659Z,11.49
2023-05-05T01:04:18.202Z,11.49
2023-05-05T01:07:37.847Z,11.45
2023-05-05T01:10:48.782Z,11.47
2023-05-05T01:14:06.116Z,11.47
2023-05-05T01:17:17.895Z,11.46
2023-05-05T01:20:49.439Z,11.44
2023-05-05T01:24:25.358Z,11.44
2023-05-05T01:28:11.967Z,11.40
2023-05-05T01:31:33.563Z,11.35
2023-05-05T01:34:45.343Z,11.32
2023-05-05T01:37:57.576Z,11.26
2023-05-05T01:41:22.055Z,11.20
2023-05-05T01:44:24.332Z,11.12
2023-05-05T01:47:28.070Z,11.07
2023-05-05T01:50:30.970Z,11.02
2023-05-05T01:53:34.389Z,10.95
2023-05-05T01:56:40.367Z,10.95
2023-05-05T01:59:43.187Z,10.92
2023-05-05T02:02:49.900Z,10.90
2023-05-05T02:05:53.481Z,10.89
2023-05-05T02:08:58.549Z,10.87
2023-05-05T02:12:02.341Z,10.89
2023-05-05T02:15:06.118Z,10.88
2023-05-05T02:18:09.531Z,10.87
2023-05-05T02:21:11.489Z,10.86
2023-05-05T02:24:13.584Z,10.87
2023-05-05T02:27:18.991Z,10.88
2023-05-05T02:30:21.753Z,10.89
2023-05-05T02:33:26.219Z,10.90
2023-05-05T02:36:32.647Z,10.92
2023-05-05T02:40:11.375Z,10.96
2023-05-05T02:43:18.229Z,11.02
2023-05-05T02:46:20.990Z,11.07
2023-05-05T02:49:23.375Z,11.08
2023-05-05T02:52:25.675Z,11.12
2023-05-05T02:55:36.505Z,11.13
2023-05-05T02:58:48.862Z,11.16
2023-05-05T03:02:11.640Z,11.19
2023-05-05T03:05:19.142Z,11.29
2023-05-05T03:08:29.814Z,11.36
2023-05-05T03:11:49.807Z,11.44
2023-05-05T03:14:54.326Z,11.53
2023-05-05T03:17:58.541Z,11.62
2023-05-05T03:21:08.828Z,11.71
2023-05-05T03:24:14.441Z,11.79
2023-05-05T03:27:17.803Z,11.89
2023-05-05T03:30:20.351Z,11.97
2023-05-05T03:33:25.470Z,12.10
2023-05-05T03:36:30.092Z,12.19
2023-05-05T03:39:33.414Z,12.30
2023-05-05T03:42:35.887Z,12.37
2023-05-05T03:45:37.934Z,12.47
2023-05-05T03:48:41.826Z,12.58
2023-05-05T03:51:44.328Z,12.70
2023-05-05T03:54:46.356Z,12.84
2023-05-05T03:57:48.349Z,12.96
2023-05-05T04:00:50.253Z,13.10
2023-05-05T04:03:53.768Z,13.26
2023-05-05T04:06:55.712Z,13.41
2023-05-05T04:09:57.656Z,13.56
2023-05-05T04:12:59.962Z,13.71
2023-05-05T04:16:03.772Z,13.85
2023-05-05T04:19:06.198Z,14.00
2023-05-05T04:22:08.220Z,14.18
2023-05-05T04:25:11.026Z,14.30
2023-05-05T04:28:13.478Z,14.47
2023-05-05T04:31:15.573Z,14.58
2023-05-05T04:34:19.046Z,14.60
2023-05-05T04:37:21.198Z,14.55
2023-05-05T04:40:23.281Z,14.60
2023-05-05T04:43:25.392Z,14.88
2023-05-05T04:46:27.426Z,15.25
2023-05-05T04:49:30.378Z,15.69
2023-05-05T04:52:32.869Z,16.02
2023-05-05T04:55:35.056Z,16.41
2023-05-05T04:58:36.902Z,16.82
2023-05-05T05:01:38.921Z,17.16
2023-05-05T05:04:40.746Z,17.44
2023-05-05T05:07:42.702Z,17.72
2023-05-05T05:10:45.266Z,18.00
2023-05-05T05:13:47.223Z,18.32
2023-05-05T05:16:52.347Z,18.63
2023-05-05T05:19:59.264Z,18.86
2023-05-05T05:23:04.645Z,18.93
2023-05-05T05:26:09.993Z,19.03
2023-05-05T05:29:12.350Z,19.07
2023-05-05T05:32:14.555Z,19.17
2023-05-05T05:35:16.861Z,19.43
2023-05-05T05:38:19.459Z,19.80
2023-05-05T05:41:23.210Z,19.96
2023-05-05T05:44:25.166Z,20.08
2023-05-05T05:47:28.770Z,20.17
2023-05-05T05:50:32.172Z,20.26
2023-05-05T05:53:34.765Z,20.44
2023-05-05T05:56:37.081Z,20.70
2023-05-05T05:59:39.198Z,20.95
2023-05-05T06:02:42.656Z,21.24
2023-05-05T06:05:50.718Z,21.45
2023-05-05T06:08:54.196Z,21.65
2023-05-05T06:11:56.921Z,21.82
2023-05-05T06:14:59.205Z,22.03
2023-05-05T06:18:01.555Z,22.41
2023-05-05T06:21:04.601Z,22.71
2023-05-05T06:24:08.368Z,22.89
2023-05-05T06:27:11.501Z,23.23
2023-05-05T06:30:14.892Z,23.47
2023-05-05T06:33:17.314Z,23.72
2023-05-05T06:36:19.396Z,23.72
2023-05-05T06:39:22.727Z,23.98
2023-05-05T06:42:25.406Z,24.08
2023-05-05T06:45:31.284Z,23.57
2023-05-05T06:48:33.408Z,23.67
2023-05-05T06:51:36.628Z,24.00
2023-05-05T06:54:38.802Z,24.26
2023-05-05T06:57:43.374Z,24.33
2023-05-05T07:00:45.555Z,24.55
2023-05-05T07:03:49.028Z,24.90
2023-05-05T07:06:52.172Z,25.17
2023-05-05T07:09:55.513Z,25.45
2023-05-05T07:12:57.892Z,25.69
2023-05-05T07:16:00.140Z,25.84
2023-05-05T07:19:05.545Z,25.94
2023-05-05T07:22:07.477Z,25.85
2023-05-05T07:25:09.561Z,25.70
2023-05-05T07:28:11.401Z,24.84
2023-05-05T07:31:13.376Z,25.21
2023-05-05T07:34:15.297Z,24.90
2023-05-05T07:37:17.250Z,24.45
2023-05-05T07:40:19.117Z,24.22
2023-05-05T07:43:20.984Z,23.88
2023-05-05T07:46:22.896Z,23.27
2023-05-05T07:49:25.112Z,23.25
2023-05-05T07:52:43.337Z,23.19
2023-05-05T07:55:46.793Z,23.29
2023-05-05T07:58:48.827Z,23.31
2023-05-05T08:01:51.127Z,23.37
2023-05-05T08:04:53.970Z,23.33
2023-05-05T08:07:56.083Z,23.38
2023-05-05T08:10:57.903Z,23.28
2023-05-05T08:13:59.834Z,23.29
2023-05-05T08:17:01.771Z,23.39
2023-05-05T08:20:03.900Z,23.33
2023-05-05T08:23:06.555Z,23.33
2023-05-05T08:26:09.526Z,23.25
2023-05-05T08:29:11.672Z,23.58
2023-05-05T08:32:13.438Z,23.88
2023-05-05T08:35:15.468Z,23.82
2023-05-05T08:38:19.147Z,23.94
2023-05-05T08:41:21.232Z,23.76
2023-05-05T08:44:23.207Z,24.03
2023-05-05T08:47:25.285Z,24.28
2023-05-05T08:50:28.093Z,24.26
2023-05-05T08:53:53.166Z,23.86
2023-05-05T08:56:59.928Z,23.49
2023-05-05T09:00:03.082Z,23.39
2023-05-05T09:03:06.172Z,22.98
2023-05-05T09:06:09.653Z,22.75
2023-05-05T09:09:12.056Z,22.58
2023-05-05T09:12:15.816Z,22.24
2023-05-05T09:15:17.666Z,22.23
2023-05-05T09:18:19.517Z,22.22
2023-05-05T09:21:26.032Z,22.29
2023-05-05T09:24:27.860Z,22.91
2023-05-05T09:27:29.775Z,23.36
2023-05-05T09:30:31.713Z,23.74
2023-05-05T09:33:33.657Z,24.10
2023-05-05T09:36:47.663Z,24.28
2023-05-05T09:39:56.263Z,24.42
2023-05-05T09:43:02.374Z,24.38
2023-05-05T09:46:08.143Z,24.35
2023-05-05T09:49:18.247Z,24.02
2023-05-05T09:52:20.218Z,23.82
2023-05-05T09:55:22.151Z,23.61
2023-05-05T09:58:26.436Z,23.40
2023-05-05T10:01:28.366Z,23.18
2023-05-05T10:04:30.937Z,23.00
2023-05-05T10:07:33.638Z,22.70
2023-05-05T10:10:35.745Z,22.53
2023-05-05T10:13:40.226Z,22.29
2023-05-05T10:16:47.689Z,22.35
2023-05-05T10:19:52.397Z,22.29
2023-05-05T10:23:00.627Z,22.20
2023-05-05T10:26:06.339Z,22.12
2023-05-05T10:29:16.407Z,22.09
2023-05-05T10:32:51.944Z,21.96
2023-05-05T10:35:53.683Z,21.78
2023-05-05T10:38:59.357Z,21.65
2023-05-05T10:42:04.961Z,21.38
2023-05-05T10:45:07.841Z,21.27
2023-05-05T10:48:21.222Z,21.19
2023-05-05T10:51:47.088Z,21.15
2023-05-05T10:55:07.295Z,21.14
2023-05-05T10:58:09.093Z,21.00
2023-05-05T11:01:11.003Z,20.96
2023-05-05T11:04:23.790Z,20.87
2023-05-05T11:07:27.532Z,20.53
2023-05-05T11:10:44.147Z,20.45
2023-05-05T11:13:46.063Z,20.41
2023-05-05T11:16:49.985Z,20.45
2023-05-05T11:19:52.541Z,20.53
2023-05-05T11:23:03.769Z,20.70
2023-05-05T11:26:05.765Z,21.02
2023-05-05T11:29:08.337Z,21.44
2023-05-05T11:32:14.271Z,21.78
2023-05-05T11:35:16.319Z,21.81
2023-05-05T11:38:20.258Z,22.04
2023-05-05T11:41:34.106Z,22.13
2023-05-05T11:44:36.072Z,22.28
2023-05-05T11:47:38.340Z,22.33
2023-05-05T11:50:40.243Z,22.24
2023-05-05T11:53:46.601Z,22.26
2023-05-05T11:56:55.369Z,22.18
2023-05-05T12:00:00.499Z,22.22
2023-05-05T12:03:02.570Z,22.12
2023-05-05T12:06:05.255Z,22.03
2023-05-05T12:09:14.486Z,21.99
2023-05-05T12:12:17.184Z,21.87
2023-05-05T12:15:28.530Z,21.71
2023-05-05T12:18:30.704Z,21.55
2023-05-05T12:21:32.887Z,21.35
2023-05-05T12:24:35.060Z,21.30
2023-05-05T12:27:37.112Z,21.05
2023-05-05T12:34:17.298Z,20.80
2023-05-05T12:37:19.508Z,20.69
2023-05-05T12:40:40.007Z,20.49
2023-05-05T12:43:42.193Z,20.26
2023-05-05T12:46:48.650Z,20.04
2023-05-05T12:49:51.981Z,20.00
2023-05-05T12:52:54.427Z,19.92
2023-05-05T12:55:56.249Z,19.84
2023-05-05T12:58:58.234Z,19.66
2023-05-05T13:02:01.644Z,19.75
2023-05-05T13:05:03.858Z,19.85
2023-05-05T13:08:05.791Z,19.52
2023-05-05T13:11:07.712Z,19.55
2023-05-05T13:14:09.663Z,19.32
2023-05-05T13:17:12.176Z,19.36
2023-05-05T13:20:14.204Z,19.35
2023-05-05T13:23:18.704Z,19.33
2023-05-05T13:26:21.388Z,19.29
2023-05-05T13:29:25.590Z,19.26
2023-05-05T13:32:30.328Z,19.30
2023-05-05T13:35:33.034Z,19.25
2023-05-05T13:38:35.022Z,19.21
2023-05-05T13:41:36.965Z,19.14
2023-05-05T13:44:39.452Z,19.06
2023-05-05T13:47:42.129Z,18.89
2023-05-05T13:50:44.083Z,18.81
2023-05-05T13:53:46.663Z,18.65
2023-05-05T13:56:49.057Z,18.76
2023-05-05T13:59:50.954Z,18.76
2023-05-05T14:02:52.959Z,18.72
2023-05-05T14:05:54.842Z,18.63
2023-05-05T14:08:56.949Z,18.56
2023-05-05T14:11:59.129Z,18.60
2023-05-05T14:15:01.098Z,18.71
2023-05-05T14:18:03.235Z,18.74
2023-05-05T14:21:05.292Z,18.85
2023-05-05T14:24:07.418Z,18.98
2023-05-05T14:27:09.373Z,19.04
2023-05-05T14:30:11.680Z,19.00
2023-05-05T14:33:13.468Z,19.21
2023-05-05T14:36:15.420Z,19.57
2023-05-05T14:39:17.305Z,19.89
2023-05-05T14:42:19.147Z,20.09
2023-05-05T14:45:21.316Z,20.13
2023-05-05T14:48:23.269Z,19.98
2023-05-05T14:51:25.193Z,19.68
2023-05-05T14:54:28.794Z,19.36
2023-05-05T14:57:31.128Z,19.14
2023-05-05T15:00:33.094Z,18.85
2023-05-05T15:03:35.152Z,18.71
2023-05-05T15:06:37.077Z,18.42
2023-05-05T15:09:38.899Z,18.29
2023-05-05T15:12:40.924Z,18.18
2023-05-05T15:15:43.105Z,18.03
2023-05-05T15:18:45.108Z,17.99
2023-05-05T15:21:53.161Z,17.82
2023-05-05T15:24:55.102Z,17.72
2023-05-05T15:27:58.844Z,17.64
2023-05-05T15:31:02.233Z,17.65
2023-05-05T15:34:04.095Z,17.53
2023-05-05T15:37:06.163Z,17.54
2023-05-05T15:40:08.802Z,17.46
2023-05-05T15:43:10.768Z,17.41
2023-05-05T15:46:12.627Z,17.26
2023-05-05T15:49:14.422Z,17.10
2023-05-05T15:52:16.255Z,16.90
2023-05-05T15:55:18.160Z,16.84
2023-05-05T15:58:20.024Z,16.78
2023-05-05T16:01:22.010Z,16.71
2023-05-05T16:04:23.817Z,16.66
2023-05-05T16:07:25.637Z,16.60
2023-05-05T16:10:27.471Z,16.43
2023-05-05T16:13:29.669Z,16.41
2023-05-05T16:16:31.528Z,16.34
2023-05-05T16:19:33.341Z,16.27
2023-05-05T16:22:35.325Z,16.26
2023-05-05T16:25:37.309Z,16.17
2023-05-05T16:28:39.405Z,16.11
2023-05-05T16:31:41.442Z,16.02
2023-05-05T16:34:43.354Z,15.94
2023-05-05T16:37:45.184Z,15.86
2023-05-05T16:40:47.038Z,15.76
2023-05-05T16:43:49.763Z,15.61
2023-05-05T16:46:51.634Z,15.48
2023-05-05T16:49:53.488Z,15.39
2023-05-05T16:52:55.514Z,15.35
2023-05-05T16:55:57.456Z,15.27
2023-05-05T16:58:59.306Z,15.23
2023-05-05T17:02:01.250Z,15.16
2023-05-05T17:05:03.726Z,15.03
2023-05-05T17:08:05.565Z,14.97
2023-05-05T17:11:08.494Z,14.96
2023-05-05T17:14:11.489Z,14.95
2023-05-05T17:17:13.511Z,14.78
2023-05-05T17:20:15.644Z,14.69
2023-05-05T17:23:17.519Z,14.63
2023-05-05T17:26:19.423Z,14.54
2023-05-05T17:29:23.161Z,14.36
2023-05-05T17:32:25.058Z,14.31
2023-05-05T17:35:27.155Z,14.25
2023-05-05T17:38:29.007Z,14.16
2023-05-05T17:41:30.792Z,14.12
2023-05-05T17:44:32.756Z,14.06
2023-05-05T17:47:34.680Z,14.05
2023-05-05T17:50:36.900Z,13.98
2023-05-05T17:53:38.776Z,13.88
2023-05-05T17:56:40.673Z,13.87
2023-05-05T17:59:42.782Z,13.82
2023-05-05T18:02:45.451Z,13.72
2023-05-05T18:05:47.226Z,13.56
2023-05-05T18:08:49.434Z,13.53
2023-05-05T18:11:52.881Z,13.53
2023-05-05T18:14:54.790Z,13.45
2023-05-05T18:17:56.677Z,13.40
2023-05-05T18:20:58.530Z,13.38
2023-05-05T18:24:11.575Z,13.08
2023-05-05T18:27:20.970Z,13.15
2023-05-05T18:30:22.822Z,13.21
2023-05-05T18:33:24.629Z,13.21
2023-05-05T18:36:27.986Z,13.14
2023-05-05T18:39:30.389Z,13.16
2023-05-05T18:42:32.192Z,13.11
2023-05-05T18:45:34.241Z,13.07
2023-05-05T18:48:36.289Z,13.03
2023-05-05T18:51:38.198Z,13.01
2023-05-05T18:54:40.105Z,12.97
2023-05-05T18:57:41.956Z,12.95
2023-05-05T19:00:43.962Z,12.92
2023-05-05T19:03:49.030Z,12.87
2023-05-05T19:06:52.535Z,12.82
2023-05-05T19:09:54.699Z,12.77
2023-05-05T19:12:56.709Z,12.61
2023-05-05T19:15:58.941Z,12.59
2023-05-05T19:19:00.865Z,12.52
2023-05-05T19:22:03.606Z,12.49
2023-05-05T19:25:06.002Z,12.46
2023-05-05T19:28:07.805Z,12.39
2023-05-05T19:31:09.651Z,12.34
2023-05-05T19:34:11.556Z,12.27
2023-05-05T19:37:13.479Z,12.19
2023-05-05T19:40:15.626Z,12.14
2023-05-05T19:43:17.598Z,12.05
2023-05-05T19:46:19.936Z,11.96
2023-05-05T19:49:21.803Z,11.87
2023-05-05T19:52:23.715Z,11.83
2023-05-05T19:55:25.783Z,11.76
2023-05-05T19:58:27.622Z,11.71
2023-05-05T20:01:29.819Z,11.68
2023-05-05T20:04:31.749Z,11.63
2023-05-05T20:07:33.660Z,11.58
2023-05-05T20:10:36.677Z,11.54
2023-05-05T20:13:39.109Z,11.50
2023-05-05T20:16:42.067Z,11.46
2023-05-05T20:19:43.926Z,11.41
2023-05-05T20:22:46.814Z,11.33
2023-05-05T20:25:48.713Z,11.25
2023-05-05T20:28:50.650Z,11.17
2023-05-05T20:31:52.597Z,11.12
2023-05-05T20:34:54.627Z,11.08
2023-05-05T20:37:56.466Z,11.02
2023-05-05T20:40:58.426Z,10.97
2023-05-05T20:44:00.799Z,10.89
2023-05-05T20:47:02.822Z,10.82
2023-05-05T20:50:05.243Z,10.76
2023-05-05T20:53:11.602Z,10.75
2023-05-05T20:56:13.525Z,10.69
2023-05-05T20:59:15.387Z,10.61
2023-05-05T21:02:17.359Z,10.51
2023-05-05T21:05:19.630Z,10.45
2023-05-05T21:08:21.654Z,10.41
2023-05-05T21:11:23.577Z,10.33
2023-05-05T21:14:25.469Z,10.23
2023-05-05T21:17:27.943Z,10.14
2023-05-05T21:20:29.920Z,10.08
2023-05-05T21:23:31.935Z,10.03
2023-05-05T21:26:33.946Z,9.98
2023-05-05T21:29:37.885Z,9.91
2023-05-05T21:32:40.412Z,9.84
2023-05-05T21:35:42.253Z,9.78
2023-05-05T21:38:44.133Z,9.71
2023-05-05T21:41:45.972Z,9.63
2023-05-05T21:44:47.851Z,9.55
2023-05-05T21:47:49.988Z,9.51
2023-05-05T21:50:51.864Z,9.46
2023-05-05T21:53:53.771Z,9.40
2023-05-05T21:56:55.604Z,9.35
2023-05-05T21:59:57.501Z,9.28
2023-05-05T22:02:59.421Z,9.28
2023-05-05T22:06:01.369Z,9.17
2023-05-05T22:09:03.407Z,9.18
2023-05-05T22:12:05.550Z,9.13
2023-05-05T22:15:08.516Z,9.05
2023-05-05T22:18:10.673Z,8.99
2023-05-05T22:21:12.703Z,8.95
2023-05-05T22:24:14.625Z,8.94
2023-05-05T22:27:16.588Z,8.90
2023-05-05T22:30:18.400Z,8.83
2023-05-05T22:33:20.179Z,8.78
2023-05-05T22:36:23.070Z,8.74
2023-05-05T22:39:24.928Z,8.64
2023-05-05T22:42:26.922Z,8.65
2023-05-05T22:45:28.905Z,8.63
2023-05-05T22:48:31.370Z,8.59
2023-05-05T22:51:33.244Z,8.56
2023-05-05T22:54:35.052Z,8.51
2023-05-05T22:57:36.980Z,8.45
2023-05-05T23:00:39.256Z,8.43
2023-05-05T23:03:41.568Z,8.41
2023-05-05T23:06:44.945Z,8.33
2023-05-05T23:09:47.536Z,8.28
2023-05-05T23:12:49.474Z,8.25
2023-05-05T23:15:51.419Z,8.26
2023-05-05T23:18:53.280Z,8.24
2023-05-05T23:21:55.250Z,8.18
2023-05-05T23:24:57.092Z,8.19
2023-05-05T23:27:58.996Z,8.17
2023-05-05T23:31:01.027Z,8.16
2023-05-05T23:34:02.988Z,8.13
2023-05-05T23:37:06.239Z,8.12
2023-05-05T23:40:09.166Z,8.07
2023-05-05T23:43:12.126Z,8.05
2023-05-05T23:46:13.872Z,8.03
2023-05-05T23:49:15.805Z,8.00
2023-05-05T23:52:17.696Z,7.99
2023-05-05T23:55:19.654Z,7.98
2023-05-05T23:58:21.530Z,7.95
